Time;durP1;ratioP1;P1;durP2;ratioP2;P2;SDS_P1;SDS_P2;PMS_P1;PMS_P2;Temp;Humidity;BMP_temperature;BMP_pressure;BME280_temperature;BME280_humidity;BME280_pressure;Samples;Min_cycle;Max_cycle;Signal;HPM_P1;HPM_P2
2024/01/11 00:02:02;;;;;;;;;;;;;;;;;;53482;1251;1005307;-80
2024/01/11 00:04:28;;;;;;;;;;;;;;;;;;54229;1250;1058152;-81
2024/01/11 00:06:55;;;;;;;;;;;;;;;;;;54198;1251;1003387;-80
2024/01/11 00:09:21;;;;;;;;;;;;;;;;;;54217;1250;1038639;-81
2024/01/11 00:11:48;;;;;;;;;;;;;;;;;;54198;1250;1003518;-81
2024/01/11 00:14:15;;;;;;;;;;;;;;;;;;54215;1251;1046272;-81
2024/01/11 00:16:42;;;;;;;;;;;;;;;;;;54224;1251;1003405;-80
2024/01/11 00:19:09;;;;;;;;;;;;;;;;;;54223;1251;1060027;-80
2024/01/11 00:21:35;;;;;;;;;;;;;;;;;;54261;1250;1003282;-80
2024/01/11 00:24:02;;;;;;;;;;;;;;;;;;54250;1251;1056723;-80
2024/01/11 00:26:28;;;;;;;;;;;;;;;;;;54267;1250;1003084;-80
2024/01/11 00:28:55;;;;;;;;;;;;;;;;;;54240;1250;1058328;-80
2024/01/11 00:31:21;;;;;;;;;;;;;;;;;;54221;1250;1003427;-80
2024/01/11 00:33:48;;;;;;;;;;;;;;;;;;54230;1250;1039227;-80
2024/01/11 00:36:14;;;;;;;;;;;;;;;;;;54254;1250;1003376;-80
2024/01/11 00:38:41;;;;;;;;;;;;;;;;;;54230;1251;1045648;-81
2024/01/11 00:41:07;;;;;;;;;;;;;;;;;;54269;1250;1003177;-81
2024/01/11 00:43:34;;;;;;;;;;;;;;;;;;54176;1250;1060852;-81
2024/01/11 00:46:00;;;;;;;;;;;;;;;;;;54173;1251;1003440;-81
2024/01/11 00:48:27;;;;;;;;;;;;;;;;;;54186;1251;1057365;-80
2024/01/11 00:50:53;;;;;;;;;;;;;;;;;;54203;1251;1003152;-80
2024/01/11 00:53:20;;;;;;;;;;;;;;;;;;54132;1254;1057113;-80
2024/01/11 00:55:46;;;;;;;;;;;;;;;;;;54228;1250;1003273;-81
2024/01/11 00:58:13;;;;;;;;;;;;;;;;;;54219;1254;1038309;-80
2024/01/11 01:00:39;;;;;;;;;;;;;;;;;;54242;1250;1003100;-81
2024/01/11 01:03:06;;;;;;;;;;;;;;;;;;54218;1251;1044809;-81
2024/01/11 01:05:33;;;;;;;;;;;;;;;;;;54201;1250;1003360;-80
2024/01/11 01:07:59;;;;;;;;;;;;;;;;;;54261;1250;1060049;-80
2024/01/11 01:10:26;;;;;;;;;;;;;;;;;;54212;1251;1003542;-81
2024/01/11 01:12:52;;;;;;;;;;;;;;;;;;54249;1250;1056746;-80
2024/01/11 01:15:19;;;;;;;;;;;;;;;;;;54250;1250;1003767;-80
2024/01/11 01:17:45;;;;;;;;;;;;;;;;;;54238;1250;1058687;-80
2024/01/11 01:20:12;;;;;;;;;;;;;;;;;;54129;1251;1003288;-81
2024/01/11 01:22:38;;;;;;;;;;;;;;;;;;54216;1250;1038311;-81
2024/01/11 01:25:05;;;;;;;;;;;;;;;;;;54204;1254;1003289;-81
2024/01/11 01:27:31;;;;;;;;;;;;;;;;;;54241;1250;1046248;-80
2024/01/11 01:29:58;;;;;;;;;;;;;;;;;;54219;1250;1003087;-81
2024/01/11 01:32:24;;;;;;;;;;;;;;;;;;54259;1250;1060389;-80
2024/01/11 01:34:51;;;;;;;;;;;;;;;;;;54200;1251;1003156;-80
2024/01/11 01:37:17;;;;;;;;;;;;;;;;;;54273;1250;1057770;-81
2024/01/11 01:39:44;;;;;;;;;;;;;;;;;;54223;1250;1003540;-81
2024/01/11 01:42:10;;;;;;;;;;;;;;;;;;54190;1250;1058621;-80
2024/01/11 01:44:40;;;;;;;;;;;;;;;;;;54166;1251;1003187;-80
2024/01/11 01:47:07;;;;;;;;;;;;;;;;;;54174;1251;1038425;-80
2024/01/11 01:49:33;;;;;;;;;;;;;;;;;;54166;1251;1003533;-80
2024/01/11 01:52:00;;;;;;;;;;;;;;;;;;54169;1254;1044887;-80
2024/01/11 01:54:26;;;;;;;;;;;;;;;;;;54176;1251;1003316;-81
2024/01/11 01:56:53;;;;;;;;;;;;;;;;;;54215;1254;1060462;-81
2024/01/11 01:59:19;;;;;;;;;;;;;;;;;;54249;1250;1003390;-80
2024/01/11 02:01:46;;;;;;;;;;;;;;;;;;54209;1254;1056019;-80
2024/01/11 02:04:14;;;;;;;;;;;;;;;;;;54242;1250;1003128;-80
2024/01/11 02:06:40;;;;;;;;;;;;;;;;;;53842;1251;1057307;-81
2024/01/11 02:09:08;;;;;;;;;;;;;;;;;;53587;1250;1005591;-80
2024/01/11 02:11:34;;;;;;;;;;;;;;;;;;54207;1250;1038742;-81
2024/01/11 02:14:01;;;;;;;;;;;;;;;;;;54216;1250;1003217;-80
2024/01/11 02:16:27;;;;;;;;;;;;;;;;;;54290;1250;1044937;-80
2024/01/11 02:18:54;;;;;;;;;;;;;;;;;;54223;1250;1003204;-80
2024/01/11 02:21:20;;;;;;;;;;;;;;;;;;54255;1250;1059999;-80
2024/01/11 02:23:46;;;;;;;;;;;;;;;;;;54243;1250;1003411;-80
2024/01/11 02:26:13;;;;;;;;;;;;;;;;;;53394;1250;1057186;-80
2024/01/11 02:28:40;;;;;;;;;;;;;;;;;;53256;1251;1004856;-80
2024/01/11 02:31:06;;;;;;;;;;;;;;;;;;53160;1250;1058564;-80
2024/01/11 02:33:33;;;;;;;;;;;;;;;;;;53239;1250;1006366;-80
2024/01/11 02:35:59;;;;;;;;;;;;;;;;;;53238;1251;1038600;-81
2024/01/11 02:38:27;;;;;;;;;;;;;;;;;;53176;1254;1005368;-80
2024/01/11 02:40:53;;;;;;;;;;;;;;;;;;53234;1251;1047828;-80
2024/01/11 02:43:20;;;;;;;;;;;;;;;;;;53153;1251;1005769;-80
2024/01/11 02:45:46;;;;;;;;;;;;;;;;;;53167;1251;1063206;-80
2024/01/11 02:48:13;;;;;;;;;;;;;;;;;;53185;1251;1005763;-81
2024/01/11 02:50:39;;;;;;;;;;;;;;;;;;53141;1251;1056983;-80
2024/01/11 02:53:06;;;;;;;;;;;;;;;;;;53143;1254;1005029;-80
2024/01/11 02:55:32;;;;;;;;;;;;;;;;;;53244;1251;1058805;-80
2024/01/11 02:57:59;;;;;;;;;;;;;;;;;;53263;1251;1003693;-80
2024/01/11 03:00:25;;;;;;;;;;;;;;;;;;53225;1251;1038500;-81
2024/01/11 03:02:52;;;;;;;;;;;;;;;;;;53216;1251;1005822;-81
2024/01/11 03:05:18;;;;;;;;;;;;;;;;;;53271;1251;1045837;-81
2024/01/11 03:07:45;;;;;;;;;;;;;;;;;;53252;1251;1005886;-81
2024/01/11 03:10:11;;;;;;;;;;;;;;;;;;53259;1251;1060187;-80
2024/01/11 03:12:38;;;;;;;;;;;;;;;;;;53223;1251;1005381;-80
2024/01/11 03:15:04;;;;;;;;;;;;;;;;;;53245;1251;1056689;-78
2024/01/11 03:17:32;;;;;;;;;;;;;;;;;;52907;1251;1005378;-80
2024/01/11 03:19:59;;;;;;;;;;;;;;;;;;52879;1251;1058869;-80
2024/01/11 03:22:26;;;;;;;;;;;;;;;;;;52906;1254;1005664;-80
2024/01/11 03:24:52;;;;;;;;;;;;;;;;;;53174;1252;1038621;-80
2024/01/11 03:27:19;;;;;;;;;;;;;;;;;;53161;1251;1005733;-81
2024/01/11 03:29:45;;;;;;;;;;;;;;;;;;53219;1251;1045833;-80
2024/01/11 03:32:13;;;;;;;;;;;;;;;;;;53224;1251;1004947;-81
2024/01/11 03:34:40;;;;;;;;;;;;;;;;;;53199;1251;1061659;-80
2024/01/11 03:37:06;;;;;;;;;;;;;;;;;;53225;1251;1005165;-80
2024/01/11 03:39:33;;;;;;;;;;;;;;;;;;53143;1253;1057638;-80
2024/01/11 03:41:59;;;;;;;;;;;;;;;;;;53206;1254;1004828;-80
2024/01/11 03:44:26;;;;;;;;;;;;;;;;;;53233;1251;1058069;-80
2024/01/11 03:46:52;;;;;;;;;;;;;;;;;;53095;1251;1005234;-80
2024/01/11 03:49:19;;;;;;;;;;;;;;;;;;53183;1251;1039168;-80
2024/01/11 03:51:45;;;;;;;;;;;;;;;;;;53247;1251;1004936;-80
2024/01/11 03:54:12;;;;;;;;;;;;;;;;;;52979;1251;1046111;-80
2024/01/11 03:56:39;;;;;;;;;;;;;;;;;;53172;1251;1005534;-80
2024/01/11 03:59:06;;;;;;;;;;;;;;;;;;53203;1251;1062423;-80
2024/01/11 04:01:32;;;;;;;;;;;;;;;;;;53187;1251;1003973;-80
2024/01/11 04:03:59;;;;;;;;;;;;;;;;;;53244;1251;1056390;-80
2024/01/11 04:06:25;;;;;;;;;;;;;;;;;;53254;1251;1005086;-80
2024/01/11 04:08:52;;;;;;;;;;;;;;;;;;53249;1250;1058050;-81
2024/01/11 04:11:18;;;;;;;;;;;;;;;;;;53253;1251;1006071;-80
2024/01/11 04:13:45;;;;;;;;;;;;;;;;;;53192;1251;1037690;-80
2024/01/11 04:16:11;;;;;;;;;;;;;;;;;;53192;1250;1003699;-80
2024/01/11 04:18:38;;;;;;;;;;;;;;;;;;53281;1251;1045291;-81
2024/01/11 04:21:04;;;;;;;;;;;;;;;;;;53027;1250;1005153;-80
2024/01/11 04:23:31;;;;;;;;;;;;;;;;;;53657;1251;1061041;-80
2024/01/11 04:25:57;;;;;;;;;;;;;;;;;;54135;1250;1005291;-80
2024/01/11 04:28:24;;;;;;;;;;;;;;;;;;53280;1251;1058499;-80
2024/01/11 04:30:50;;;;;;;;;;;;;;;;;;53253;1250;1005434;-80
2024/01/11 04:33:17;;;;;;;;;;;;;;;;;;53250;1254;1058702;-81
2024/01/11 04:35:43;;;;;;;;;;;;;;;;;;53164;1251;1005592;-81
2024/01/11 04:38:10;;;;;;;;;;;;;;;;;;53188;1251;1038481;-80
2024/01/11 04:40:37;;;;;;;;;;;;;;;;;;53231;1251;1004847;-80
2024/01/11 04:43:03;;;;;;;;;;;;;;;;;;53237;1250;1048525;-80
2024/01/11 04:45:30;;;;;;;;;;;;;;;;;;53203;1253;1004973;-80
2024/01/11 04:47:56;;;;;;;;;;;;;;;;;;53217;1251;1060599;-80
2024/01/11 04:50:23;;;;;;;;;;;;;;;;;;53185;1251;1005761;-80
2024/01/11 04:52:50;;;;;;;;;;;;;;;;;;52992;1251;1056713;-80
2024/01/11 04:55:16;;;;;;;;;;;;;;;;;;53176;1250;1003450;-81
2024/01/11 04:57:43;;;;;;;;;;;;;;;;;;53166;1251;1059026;-80
2024/01/11 05:00:10;;;;;;;;;;;;;;;;;;53156;1251;1005864;-80
2024/01/11 05:02:36;;;;;;;;;;;;;;;;;;53224;1254;1038069;-80
2024/01/11 05:05:03;;;;;;;;;;;;;;;;;;53184;1251;1005067;-78
2024/01/11 05:07:30;;;;;;;;;;;;;;;;;;52931;1251;1045755;-78
2024/01/11 05:09:56;;;;;;;;;;;;;;;;;;53017;1251;1005170;-78
2024/01/11 05:12:23;;;;;;;;;;;;;;;;;;52970;1251;1060164;-78
2024/01/11 05:14:49;;;;;;;;;;;;;;;;;;52992;1251;1004933;-78
2024/01/11 05:17:15;;;;;;;;;;;;;;;;;;52910;1251;1056833;-78
2024/01/11 05:19:42;;;;;;;;;;;;;;;;;;52996;1251;1004889;-78
2024/01/11 05:22:08;;;;;;;;;;;;;;;;;;53022;1250;1059555;-78
2024/01/11 05:24:35;;;;;;;;;;;;;;;;;;52950;1251;1005883;-78
2024/01/11 05:27:02;;;;;;;;;;;;;;;;;;52954;1251;1038733;-78
2024/01/11 05:29:28;;;;;;;;;;;;;;;;;;52938;1251;1005365;-79
2024/01/11 05:31:55;;;;;;;;;;;;;;;;;;52957;1251;1045917;-78
2024/01/11 05:34:22;;;;;;;;;;;;;;;;;;52977;1251;1004868;-78
2024/01/11 05:36:48;;;;;;;;;;;;;;;;;;53056;1251;1060071;-78
2024/01/11 05:39:15;;;;;;;;;;;;;;;;;;52981;1251;1005151;-79
2024/01/11 05:41:41;;;;;;;;;;;;;;;;;;52954;1251;1056275;-78
2024/01/11 05:44:08;;;;;;;;;;;;;;;;;;53023;1251;1005353;-78
2024/01/11 05:46:35;;;;;;;;;;;;;;;;;;52896;1253;1057656;-78
2024/01/11 05:49:02;;;;;;;;;;;;;;;;;;52908;1251;1005861;-78
2024/01/11 05:51:28;;;;;;;;;;;;;;;;;;53042;1253;1038561;-78
2024/01/11 05:53:55;;;;;;;;;;;;;;;;;;52940;1251;1005572;-79
2024/01/11 05:56:21;;;;;;;;;;;;;;;;;;52940;1250;1046162;-78
2024/01/11 05:58:48;;;;;;;;;;;;;;;;;;53024;1250;1005986;-79
2024/01/11 06:01:14;;;;;;;;;;;;;;;;;;53036;1250;1060155;-78
2024/01/11 06:03:41;;;;;;;;;;;;;;;;;;53049;1251;1005681;-79
2024/01/11 06:06:08;;;;;;;;;;;;;;;;;;52915;1253;1057201;-78
2024/01/11 06:08:34;;;;;;;;;;;;;;;;;;53117;1250;1005589;-78
2024/01/11 06:11:01;;;;;;;;;;;;;;;;;;52987;1250;1057901;-78
2024/01/11 06:13:27;;;;;;;;;;;;;;;;;;53970;1250;1003407;-78
2024/01/11 06:15:54;;;;;;;;;;;;;;;;;;53374;1250;1038708;-78
2024/01/11 06:18:20;;;;;;;;;;;;;;;;;;53005;1254;1005417;-78
2024/01/11 06:20:47;;;;;;;;;;;;;;;;;;52993;1249;1045414;-78
2024/01/11 06:23:13;;;;;;;;;;;;;;;;;;52979;1251;1005707;-78
2024/01/11 06:25:41;;;;;;;;;;;;;;;;;;52982;1250;1059558;-78
2024/01/11 06:28:09;;;;;;;;;;;;;;;;;;52934;1250;1005241;-78
2024/01/11 06:30:36;;;;;;;;;;;;;;;;;;53016;1251;1056324;-78
2024/01/11 06:33:03;;;;;;;;;;;;;;;;;;54261;1249;1003326;-78
2024/01/11 06:35:30;;;;;;;;;;;;;;;;;;54044;1253;1204918;-81
2024/01/11 06:37:57;;;;;;;;;;;;;;;;;;54181;1251;1003446;-78
2024/01/11 06:40:24;;;;;;;;;;;;;;;;;;54235;1250;1038020;-78
2024/01/11 06:42:50;;;;;;;;;;;;;;;;;;54162;1251;1003449;-79
2024/01/11 06:45:17;;;;;;;;;;;;;;;;;;54238;1250;1045916;-79
2024/01/11 06:47:45;;;;;;;;;;;;;;;;;;54210;1251;1003124;-78
2024/01/11 06:50:12;;;;;;;;;;;;;;;;;;54217;1250;1060778;-78
2024/01/11 06:52:38;;;;;;;;;;;;;;;;;;54203;1251;1003376;-78
2024/01/11 06:55:05;;;;;;;;;;;;;;;;;;54178;1254;1056711;-78
2024/01/11 06:57:31;;;;;;;;;;;;;;;;;;54191;1251;1003328;-78
2024/01/11 06:59:58;;;;;;;;;;;;;;;;;;54145;1255;1057399;-79
2024/01/11 07:02:24;;;;;;;;;;;;;;;;;;54187;1251;1003302;-79
2024/01/11 07:04:51;;;;;;;;;;;;;;;;;;54167;1253;1039187;-78
2024/01/11 07:07:17;;;;;;;;;;;;;;;;;;54177;1252;1003248;-78
2024/01/11 07:09:44;;;;;;;;;;;;;;;;;;54231;1251;1045814;-79
2024/01/11 07:12:11;;;;;;;;;;;;;;;;;;54157;1252;1003262;-79
2024/01/11 07:14:37;;;;;;;;;;;;;;;;;;54163;1251;1060635;-79
2024/01/11 07:17:03;;;;;;;;;;;;;;;;;;54171;1251;1003407;-78
2024/01/11 07:19:30;;;;;;;;;;;;;;;;;;54177;1250;1056204;-78
2024/01/11 07:21:57;;;;;;;;;;;;;;;;;;53232;1253;1005460;-78
2024/01/11 07:24:23;;;;;;;;;;;;;;;;;;52953;1251;1058235;-79
2024/01/11 07:26:50;;;;;;;;;;;;;;;;;;53030;1253;1005456;-78
2024/01/11 07:29:16;;;;;;;;;;;;;;;;;;52991;1255;1039256;-78
2024/01/11 07:31:42;;;;;;;;;;;;;;;;;;53081;1255;1004870;-78
2024/01/11 07:34:09;;;;;;;;;;;;;;;;;;53006;1253;1045566;-78
2024/01/11 07:36:35;;;;;;;;;;;;;;;;;;53015;1251;1005798;-78
2024/01/11 07:39:02;;;;;;;;;;;;;;;;;;53118;1250;1059574;-78
2024/01/11 07:41:28;;;;;;;;;;;;;;;;;;54189;1251;1003590;-79
2024/01/11 07:43:58;;;;;;;;;;;;;;;;;;54187;1250;1056654;-80
2024/01/11 07:46:24;;;;;;;;;;;;;;;;;;54200;1253;1003139;-78
2024/01/11 07:48:51;;;;;;;;;;;;;;;;;;54204;1250;1003329;-79
2024/01/11 07:51:19;;;;;;;;;;;;;;;;;;54174;1251;1057937;-79
2024/01/11 07:53:46;;;;;;;;;;;;;;;;;;54146;1256;1003497;-78
2024/01/11 07:56:13;;;;;;;;;;;;;;;;;;53052;1252;1004898;-78
2024/01/11 07:58:41;;;;;;;;;;;;;;;;;;53023;1253;1039358;-79
2024/01/11 08:01:07;;;;;;;;;;;;;;;;;;53408;1252;1004856;-79
2024/01/11 08:03:34;;;;;;;;;;;;;;;;;;53202;1253;1045903;-79
2024/01/11 08:06:01;;;;;;;;;;;;;;;;;;53095;1253;1004841;-79
2024/01/11 08:08:27;;;;;;;;;;;;;;;;;;53001;1253;1060250;-78
2024/01/11 08:10:54;;;;;;;;;;;;;;;;;;53127;1253;1005292;-79
2024/01/11 08:13:21;;;;;;;;;;;;;;;;;;53144;1256;1057812;-78
2024/01/11 08:15:47;;;;;;;;;;;;;;;;;;52988;1253;1005153;-78
2024/01/11 08:18:15;;;;;;;;;;;;;;;;;;53017;1255;1059283;-79
2024/01/11 08:20:41;;;;;;;;;;;;;;;;;;53059;1254;1005574;-79
2024/01/11 08:23:08;;;;;;;;;;;;;;;;;;53249;1253;1038478;-79
2024/01/11 08:25:35;;;;;;;;;;;;;;;;;;54137;1253;1003124;-80
2024/01/11 08:28:02;;;;;;;;;;;;;;;;;;54127;1252;1045726;-80
2024/01/11 08:30:29;;;;;;;;;;;;;;;;;;54216;1250;1003183;-79
2024/01/11 08:32:55;;;;;;;;;;;;;;;;;;54134;1253;1061986;-80
2024/01/11 08:35:22;;;;;;;;;;;;;;;;;;54201;1251;1003504;-80
2024/01/11 08:37:49;;;;;;;;;;;;;;;;;;54155;1252;1055978;-80
2024/01/11 08:40:15;;;;;;;;;;;;;;;;;;54197;1251;1003506;-80
2024/01/11 08:42:42;;;;;;;;;;;;;;;;;;54165;1253;1058212;-80
2024/01/11 08:45:09;;;;;;;;;;;;;;;;;;53868;1254;1005505;-80
2024/01/11 08:47:38;;;;;;;;;;;;;;;;;;53033;1255;1038449;-80
2024/01/11 08:50:05;;;;;;;;;;;;;;;;;;53025;1255;1005168;-80
2024/01/11 08:52:33;;;;;;;;;;;;;;;;;;53052;1251;1004887;-80
2024/01/11 08:54:59;;;;;;;;;;;;;;;;;;53089;1250;1045321;-80
2024/01/11 08:57:27;;;;;;;;;;;;;;;;;;53625;1251;1004798;-80
2024/01/11 08:59:54;;;;;;;;;;;;;;;;;;54209;1251;1060410;-80
2024/01/11 09:02:20;;;;;;;;;;;;;;;;;;54163;1250;1003430;-80
2024/01/11 09:04:47;;;;;;;;;;;;;;;;;;54145;1255;1057720;-80
2024/01/11 09:07:14;;;;;;;;;;;;;;;;;;54164;1251;1003332;-80
2024/01/11 09:09:41;;;;;;;;;;;;;;;;;;54130;1255;1058003;-80
2024/01/11 09:12:07;;;;;;;;;;;;;;;;;;54125;1253;1003437;-80
2024/01/11 09:14:34;;;;;;;;;;;;;;;;;;54158;1251;1038677;-80
2024/01/11 09:17:00;;;;;;;;;;;;;;;;;;54170;1252;1003498;-80
2024/01/11 09:19:27;;;;;;;;;;;;;;;;;;53226;1253;1046024;-80
2024/01/11 09:21:53;;;;;;;;;;;;;;;;;;53083;1253;1005443;-80
2024/01/11 09:24:20;;;;;;;;;;;;;;;;;;53017;1253;1060788;-80
2024/01/11 09:26:46;;;;;;;;;;;;;;;;;;53062;1253;1004982;-79
2024/01/11 09:29:13;;;;;;;;;;;;;;;;;;53123;1251;1056559;-80
2024/01/11 09:31:39;;;;;;;;;;;;;;;;;;53080;1250;1004856;-80
2024/01/11 09:34:07;;;;;;;;;;;;;;;;;;53050;1253;1058511;-80
2024/01/11 09:36:33;;;;;;;;;;;;;;;;;;53107;1255;1005150;-80
2024/01/11 09:39:00;;;;;;;;;;;;;;;;;;54160;1253;1037981;-80
2024/01/11 09:41:27;;;;;;;;;;;;;;;;;;54145;1252;1003564;-80
2024/01/11 09:43:53;;;;;;;;;;;;;;;;;;54155;1252;1045848;-80
2024/01/11 09:46:20;;;;;;;;;;;;;;;;;;54160;1255;1003235;-80
2024/01/11 09:48:47;;;;;;;;;;;;;;;;;;54159;1250;1060927;-80
2024/01/11 09:51:14;;;;;;;;;;;;;;;;;;54165;1253;1003425;-80
2024/01/11 09:53:40;;;;;;;;;;;;;;;;;;54118;1253;1056785;-80
2024/01/11 09:56:07;;;;;;;;;;;;;;;;;;54179;1250;1003237;-80
2024/01/11 09:58:33;;;;;;;;;;;;;;;;;;54138;1253;1057831;-80
2024/01/11 10:01:00;;;;;;;;;;;;;;;;;;54184;1251;1003280;-80
2024/01/11 10:03:26;;;;;;;;;;;;;;;;;;54164;1251;1038777;-80
2024/01/11 10:05:53;;;;;;;;;;;;;;;;;;53946;1253;1003362;-80
2024/01/11 10:08:19;;;;;;;;;;;;;;;;;;54149;1253;1045317;-81
2024/01/11 10:10:46;;;;;;;;;;;;;;;;;;54247;1251;1003747;-80
2024/01/11 10:13:12;;;;;;;;;;;;;;;;;;54105;1253;1060195;-80
2024/01/11 10:15:39;;;;;;;;;;;;;;;;;;54140;1250;1003256;-78
2024/01/11 10:18:06;;;;;;;;;;;;;;;;;;54186;1253;1057266;-78
2024/01/11 10:20:32;;;;;;;;;;;;;;;;;;54152;1251;1003297;-78
2024/01/11 10:22:59;;;;;;;;;;;;;;;;;;54122;1252;1058127;-79
2024/01/11 10:25:26;;;;;;;;;;;;;;;;;;54144;1253;1003147;-79
2024/01/11 10:27:52;;;;;;;;;;;;;;;;;;54135;1255;1038202;-79
2024/01/11 10:30:23;;;;;;;;;;;;;;;;;;54151;1253;1003324;-79
2024/01/11 10:32:49;;;;;;;;;;;;;;;;;;54126;1251;1045973;-79
2024/01/11 10:35:18;;;;;;;;;;;;;;;;;;54155;1253;1003379;-78
2024/01/11 10:37:44;;;;;;;;;;;;;;;;;;54187;1251;1061041;-78
2024/01/11 10:40:12;;;;;;;;;;;;;;;;;;53161;1253;1005081;-78
2024/01/11 10:42:39;;;;;;;;;;;;;;;;;;53012;1251;1056588;-78
2024/01/11 10:45:06;;;;;;;;;;;;;;;;;;52957;1254;1005047;-78
2024/01/11 10:47:32;;;;;;;;;;;;;;;;;;52883;1251;1058845;-78
2024/01/11 10:50:00;;;;;;;;;;;;;;;;;;52929;1251;1004831;-78
2024/01/11 10:52:26;;;;;;;;;;;;;;;;;;52974;1253;1038106;-78
2024/01/11 10:54:53;;;;;;;;;;;;;;;;;;52905;1251;1005617;-78
2024/01/11 10:57:20;;;;;;;;;;;;;;;;;;52956;1251;1044965;-79
2024/01/11 10:59:46;;;;;;;;;;;;;;;;;;53021;1251;1004678;-78
2024/01/11 11:02:15;;;;;;;;;;;;;;;;;;53140;1251;1059929;-78
2024/01/11 11:04:42;;;;;;;;;;;;;;;;;;53126;1251;1005187;-78
2024/01/11 11:07:09;;;;;;;;;;;;;;;;;;53257;1253;1005129;-78
2024/01/11 11:09:36;;;;;;;;;;;;;;;;;;53022;1252;1056913;-78
2024/01/11 11:12:03;;;;;;;;;;;;;;;;;;53102;1253;1004792;-78
2024/01/11 11:14:30;;;;;;;;;;;;;;;;;;52976;1251;1058439;-78
2024/01/11 11:16:56;;;;;;;;;;;;;;;;;;52894;1253;1005089;-78
2024/01/11 11:19:23;;;;;;;;;;;;;;;;;;52966;1251;1041136;-78
2024/01/11 11:21:50;;;;;;;;;;;;;;;;;;52952;1253;1005355;-78
2024/01/11 11:24:17;;;;;;;;;;;;;;;;;;53113;1251;1045535;-80
2024/01/11 11:26:43;;;;;;;;;;;;;;;;;;53014;1254;1005593;-80
2024/01/11 11:29:10;;;;;;;;;;;;;;;;;;52982;1254;1060074;-80
2024/01/11 11:31:37;;;;;;;;;;;;;;;;;;52915;1252;1005043;-79
2024/01/11 11:34:03;;;;;;;;;;;;;;;;;;53158;1251;1056020;-79
2024/01/11 11:36:30;;;;;;;;;;;;;;;;;;53142;1251;1005575;-78
2024/01/11 11:39:00;;;;;;;;;;;;;;;;;;53110;1255;1058742;-78
2024/01/11 11:41:27;;;;;;;;;;;;;;;;;;52969;1255;1005353;-78
2024/01/11 11:43:53;;;;;;;;;;;;;;;;;;53003;1253;1005335;-79
2024/01/11 11:46:20;;;;;;;;;;;;;;;;;;53056;1254;1041456;-78
2024/01/11 11:48:46;;;;;;;;;;;;;;;;;;52974;1251;1004834;-79
2024/01/11 11:51:13;;;;;;;;;;;;;;;;;;52949;1255;1046173;-78
2024/01/11 11:53:39;;;;;;;;;;;;;;;;;;53036;1255;1003798;-80
2024/01/11 11:56:06;;;;;;;;;;;;;;;;;;52996;1251;1060287;-79
2024/01/11 11:58:33;;;;;;;;;;;;;;;;;;53063;1253;1005251;-78
2024/01/11 12:00:59;;;;;;;;;;;;;;;;;;53406;1251;1057561;-78
2024/01/11 12:03:26;;;;;;;;;;;;;;;;;;53035;1253;1005564;-79
2024/01/11 12:05:52;;;;;;;;;;;;;;;;;;52977;1256;1059576;-78
2024/01/11 12:08:19;;;;;;;;;;;;;;;;;;53031;1254;1005537;-78
2024/01/11 12:10:46;;;;;;;;;;;;;;;;;;53051;1255;1039129;-78
2024/01/11 12:13:12;;;;;;;;;;;;;;;;;;53064;1255;1006273;-78
2024/01/11 12:15:39;;;;;;;;;;;;;;;;;;53091;1251;1045032;-79
2024/01/11 12:18:06;;;;;;;;;;;;;;;;;;53010;1255;1006322;-78
2024/01/11 12:20:33;;;;;;;;;;;;;;;;;;53067;1253;1060252;-79
2024/01/11 12:23:02;;;;;;;;;;;;;;;;;;53164;1255;1004131;-79
2024/01/11 12:25:28;;;;;;;;;;;;;;;;;;53091;1253;1056576;-78
2024/01/11 12:27:55;;;;;;;;;;;;;;;;;;53106;1253;1005339;-79
2024/01/11 12:30:21;;;;;;;;;;;;;;;;;;53047;1254;1058506;-79
2024/01/11 12:32:48;;;;;;;;;;;;;;;;;;53403;1251;1005003;-78
2024/01/11 12:35:14;;;;;;;;;;;;;;;;;;53353;1255;1038487;-78
2024/01/11 12:37:41;;;;;;;;;;;;;;;;;;53117;1254;1004666;-78
2024/01/11 12:40:10;;;;;;;;;;;;;;;;;;53032;1251;1046002;-79
2024/01/11 12:42:37;;;;;;;;;;;;;;;;;;53024;1252;1005659;-79
2024/01/11 12:45:03;;;;;;;;;;;;;;;;;;53005;1251;1005435;-79
2024/01/11 12:47:30;;;;;;;;;;;;;;;;;;53033;1252;1060359;-78
2024/01/11 12:49:56;;;;;;;;;;;;;;;;;;52970;1255;1005665;-79
2024/01/11 12:52:27;;;;;;;;;;;;;;;;;;53377;1254;1057245;-78
2024/01/11 12:54:53;;;;;;;;;;;;;;;;;;53061;1254;1056823;-78
2024/01/11 12:57:20;;;;;;;;;;;;;;;;;;53156;1254;1004366;-79
2024/01/11 12:59:46;;;;;;;;;;;;;;;;;;53000;1257;1058637;-78
2024/01/11 13:02:14;;;;;;;;;;;;;;;;;;53158;1251;1005525;-78
2024/01/11 13:04:40;;;;;;;;;;;;;;;;;;53266;1256;1038727;-78
2024/01/11 13:07:07;;;;;;;;;;;;;;;;;;53375;1257;1005059;-78
2024/01/11 13:09:33;;;;;;;;;;;;;;;;;;53046;1253;1045520;-78
2024/01/11 13:12:00;;;;;;;;;;;;;;;;;;53414;1257;1005504;-78
2024/01/11 13:14:28;;;;;;;;;;;;;;;;;;53143;1255;1060375;-78
2024/01/11 13:16:55;;;;;;;;;;;;;;;;;;54012;1251;1003477;-79
2024/01/11 13:19:21;;;;;;;;;;;;;;;;;;54182;1251;1003300;-79
2024/01/11 13:21:49;;;;;;;;;;;;;;;;;;54134;1251;1057157;-79
2024/01/11 13:24:16;;;;;;;;;;;;;;;;;;54138;1251;1003354;-78
2024/01/11 13:26:42;;;;;;;;;;;;;;;;;;54126;1254;1057931;-79
2024/01/11 13:29:11;;;;;;;;;;;;;;;;;;54145;1255;1003332;-79
2024/01/11 13:31:37;;;;;;;;;;;;;;;;;;54104;1251;1039030;-78
2024/01/11 13:34:04;;;;;;;;;;;;;;;;;;54102;1256;1003416;-78
2024/01/11 13:36:30;;;;;;;;;;;;;;;;;;54131;1264;1044947;-79
2024/01/11 13:38:57;;;;;;;;;;;;;;;;;;54138;1254;1003255;-79
2024/01/11 13:41:23;;;;;;;;;;;;;;;;;;54136;1251;1060680;-78
2024/01/11 13:43:50;;;;;;;;;;;;;;;;;;54136;1251;1003404;-79
2024/01/11 13:46:19;;;;;;;;;;;;;;;;;;54180;1252;1057096;-79
2024/01/11 13:48:47;;;;;;;;;;;;;;;;;;54192;1253;1003358;-79
2024/01/11 13:51:14;;;;;;;;;;;;;;;;;;54173;1254;1003344;-79
2024/01/11 13:53:40;;;;;;;;;;;;;;;;;;54142;1251;1057236;-78
2024/01/11 13:56:07;;;;;;;;;;;;;;;;;;54124;1254;1003247;-79
2024/01/11 13:58:33;;;;;;;;;;;;;;;;;;54111;1254;1038649;-79
2024/01/11 14:01:00;;;;;;;;;;;;;;;;;;54151;1251;1003320;-80
2024/01/11 14:03:26;;;;;;;;;;;;;;;;;;54128;1255;1045824;-79
2024/01/11 14:05:53;;;;;;;;;;;;;;;;;;54187;1251;1003196;-79
2024/01/11 14:08:19;;;;;;;;;;;;;;;;;;54122;1254;1060770;-79
2024/01/11 14:10:46;;;;;;;;;;;;;;;;;;54206;1251;1003614;-79
2024/01/11 14:13:12;;;;;;;;;;;;;;;;;;54145;1251;1057095;-79
2024/01/11 14:15:40;;;;;;;;;;;;;;;;;;54180;1251;1003277;-79
2024/01/11 14:18:07;;;;;;;;;;;;;;;;;;54117;1251;1059065;-79
2024/01/11 14:20:34;;;;;;;;;;;;;;;;;;54123;1255;1003516;-79
2024/01/11 14:23:00;;;;;;;;;;;;;;;;;;54145;1251;1039326;-79
2024/01/11 14:25:29;;;;;;;;;;;;;;;;;;54114;1251;1003307;-79
2024/01/11 14:27:56;;;;;;;;;;;;;;;;;;54117;1251;1046261;-79
2024/01/11 14:30:22;;;;;;;;;;;;;;;;;;54129;1254;1003185;-79
2024/01/11 14:32:49;;;;;;;;;;;;;;;;;;54126;1251;1060593;-79
2024/01/11 14:35:17;;;;;;;;;;;;;;;;;;54120;1251;1003351;-79
2024/01/11 14:37:44;;;;;;;;;;;;;;;;;;54134;1251;1057237;-79
2024/01/11 14:40:11;;;;;;;;;;;;;;;;;;54220;1251;1003195;-79
2024/01/11 14:42:37;;;;;;;;;;;;;;;;;;54147;1251;1057393;-79
2024/01/11 14:45:04;;;;;;;;;;;;;;;;;;54143;1254;1003815;-79
2024/01/11 14:47:33;;;;;;;;;;;;;;;;;;54125;1254;1037927;-79
2024/01/11 14:50:00;;;;;;;;;;;;;;;;;;54136;1252;1003199;-79
2024/01/11 14:52:27;;;;;;;;;;;;;;;;;;53952;1251;1003536;-79
2024/01/11 14:54:53;;;;;;;;;;;;;;;;;;54118;1251;1045521;-79
2024/01/11 14:57:21;;;;;;;;;;;;;;;;;;54137;1251;1003135;-79
2024/01/11 14:59:47;;;;;;;;;;;;;;;;;;54146;1251;1059670;-78
2024/01/11 15:02:13;;;;;;;;;;;;;;;;;;54143;1251;1003359;-79
2024/01/11 15:04:40;;;;;;;;;;;;;;;;;;53824;1253;1056923;-78
2024/01/11 15:07:06;;;;;;;;;;;;;;;;;;53010;1249;1005942;-78
2024/01/11 15:09:36;;;;;;;;;;;;;;;;;;52958;1250;1058282;-78
2024/01/11 15:12:19;;;;;;;;;;;;;;;;;;54143;1251;1057358;-79
2024/01/11 15:14:46;;;;;;;;;;;;;;;;;;54186;1250;1003472;-79
2024/01/11 15:17:12;;;;;;;;;;;;;;;;;;54130;1254;1003492;-79
2024/01/11 15:19:39;;;;;;;;;;;;;;;;;;54185;1251;1038980;-79
2024/01/11 15:22:08;;;;;;;;;;;;;;;;;;54162;1250;1003482;-79
2024/01/11 15:24:34;;;;;;;;;;;;;;;;;;54175;1251;1045652;-78
2024/01/11 15:27:02;;;;;;;;;;;;;;;;;;54166;1251;1003271;-78
2024/01/11 15:29:28;;;;;;;;;;;;;;;;;;54186;1253;1059990;-78
2024/01/11 15:31:55;;;;;;;;;;;;;;;;;;54186;1251;1003476;-78
2024/01/11 15:34:22;;;;;;;;;;;;;;;;;;54161;1251;1056266;-78
2024/01/11 15:36:48;;;;;;;;;;;;;;;;;;54181;1251;1003113;-78
2024/01/11 15:39:15;;;;;;;;;;;;;;;;;;54155;1251;1058591;-78
2024/01/11 15:41:41;;;;;;;;;;;;;;;;;;54108;1251;1003231;-79
2024/01/11 15:44:08;;;;;;;;;;;;;;;;;;54133;1253;1038370;-79
2024/01/11 15:46:34;;;;;;;;;;;;;;;;;;54177;1251;1003106;-78
2024/01/11 15:49:01;;;;;;;;;;;;;;;;;;54222;1251;1045496;-78
2024/01/11 15:51:27;;;;;;;;;;;;;;;;;;52997;1251;1005891;-78
2024/01/11 15:53:54;;;;;;;;;;;;;;;;;;52990;1251;1061604;-78
2024/01/11 15:56:20;;;;;;;;;;;;;;;;;;53126;1251;1003738;-78
2024/01/11 15:58:47;;;;;;;;;;;;;;;;;;53223;1251;1057464;-78
2024/01/11 16:01:14;;;;;;;;;;;;;;;;;;53058;1251;1005449;-78
2024/01/11 16:03:41;;;;;;;;;;;;;;;;;;52902;1256;1059825;-78
2024/01/11 16:06:07;;;;;;;;;;;;;;;;;;52939;1250;1005624;-78
2024/01/11 16:08:34;;;;;;;;;;;;;;;;;;53028;1254;1038033;-78